ADDS TAF Data INFO
IDs: Format: Raw Decoded Include METARs

Data at: 0454 UTC 22 Apr 2018

KFHU 220451Z AUTO 23006KT 10SM CLR 18/M06 A3014 RMK AO2 SLP150

No TAF found for KFHU